Al Khuwair — C6VM6 — position and weather

sailwx.info

Track history (hours):
 
Tides and Currents Weather Stations Pressure Air Temp Water Temp Dewpoint Dewpoint Depression Visibility Wind Speed Wind Dir Waves Ship Positions

Al Khuwair

Last reported at 2015-Jun-15 12:26 UTC. Time now 2015-Jul-01 04:55 UTC.
Position N 31°24' E 032°17'.
Warning: this ship's position is 15 days out of date.

Length 315 m; draft 12 m.

Type: Ship (hazmat cat A). MMSI: 311000140.

Date/timePositionNaut miles runAvg speedWind from/ knotsBaromVisibWave heightAir tempDewpointWater temp
2015-Jun-15 12:26N 31°24' E 032°17'0 0.0
2015-Jun-15 11:11N 31°24' E 032°17'72 9.5
2015-Jun-15 03:33N 32°16' E 031°17'1514.9
2015-Jun-15 02:33N 32°26' E 031°03'1515.3
2015-Jun-15 01:34N 32°31' E 030°46'80115.7
2015-Jun-12 22:31N 36°07' E 015°12'1515.4
2015-Jun-12 21:33N 36°12' E 014°54'1615.4
2015-Jun-12 20:31N 36°17' E 014°36'1515.4
2015-Jun-12 19:34N 36°22' E 014°19'1515.3
2015-Jun-12 18:34N 36°28' E 014°01'1515.2
2015-Jun-12 17:33N 36°32' E 013°43'1615.5
2015-Jun-12 16:33N 36°37' E 013°24'1515.5
2015-Jun-12 15:34N 36°42' E 013°06'1515.0
2015-Jun-12 14:33N 36°48' E 012°49'1515.1
2015-Jun-12 13:34N 36°52' E 012°31'1615.2
2015-Jun-12 12:28N 36°56' E 012°11'20714.8
2015-Jun-11 22:31N 37°52' E 008°00'64815.4
2015-Jun-10 04:33N 35°59' W 005°18'17515.7
2015-Jun-09 17:27N 36°24' W 008°53'3415.6
2015-Jun-09 15:16N 36°39' W 009°31'1215.7
2015-Jun-09 14:31N 36°48' W 009°39'1616.4
2015-Jun-09 13:33N 37°04' W 009°43'2016.1
2015-Jun-09 12:20N 37°23' W 009°49'1316.4
2015-Jun-09 11:34N 37°35' W 009°52'1716.5
2015-Jun-09 10:30N 37°52' W 009°57'1516.2
2015-Jun-09 09:33N 38°07' W 010°02'1716.4
2015-Jun-09 08:33N 38°24' W 010°07'1616.2
2015-Jun-09 07:33N 38°39' W 010°12'1615.7
2015-Jun-09 06:33N 38°55' W 010°13'1515.5
2015-Jun-09 05:33N 39°10' W 010°13'  
Track history (hours):
 
Tides and Currents Weather Stations Pressure Air Temp Water Temp Dewpoint Dewpoint Depression Visibility Wind Speed Wind Dir Waves Ship Positions

Al Khuwair

Last reported at 2015-Jun-15 12:26 UTC. Time now 2015-Jul-01 04:55 UTC.
Position N 31°24' E 032°17'.
Warning: this ship's position is 15 days out of date.

Length 315 m; draft 12 m.

Type: Ship (hazmat cat A). MMSI: 311000140.

Date/timePositionNaut miles runAvg speedWind from/ knotsBaromVisibWave heightAir tempDewpointWater temp
2015-Jun-15 12:26N 31°24' E 032°17'0 0.0
2015-Jun-15 11:11N 31°24' E 032°17'72 9.5
2015-Jun-15 03:33N 32°16' E 031°17'1514.9
2015-Jun-15 02:33N 32°26' E 031°03'1515.3
2015-Jun-15 01:34N 32°31' E 030°46'80115.7
2015-Jun-12 22:31N 36°07' E 015°12'1515.4
2015-Jun-12 21:33N 36°12' E 014°54'1615.4
2015-Jun-12 20:31N 36°17' E 014°36'1515.4
2015-Jun-12 19:34N 36°22' E 014°19'1515.3
2015-Jun-12 18:34N 36°28' E 014°01'1515.2
2015-Jun-12 17:33N 36°32' E 013°43'1615.5
2015-Jun-12 16:33N 36°37' E 013°24'1515.5
2015-Jun-12 15:34N 36°42' E 013°06'1515.0
2015-Jun-12 14:33N 36°48' E 012°49'1515.1
2015-Jun-12 13:34N 36°52' E 012°31'1615.2
2015-Jun-12 12:28N 36°56' E 012°11'20714.8
2015-Jun-11 22:31N 37°52' E 008°00'64815.4
2015-Jun-10 04:33N 35°59' W 005°18'17515.7
2015-Jun-09 17:27N 36°24' W 008°53'3415.6
2015-Jun-09 15:16N 36°39' W 009°31'1215.7
2015-Jun-09 14:31N 36°48' W 009°39'1616.4
2015-Jun-09 13:33N 37°04' W 009°43'2016.1
2015-Jun-09 12:20N 37°23' W 009°49'1316.4
2015-Jun-09 11:34N 37°35' W 009°52'1716.5
2015-Jun-09 10:30N 37°52' W 009°57'1516.2
2015-Jun-09 09:33N 38°07' W 010°02'1716.4
2015-Jun-09 08:33N 38°24' W 010°07'1616.2
2015-Jun-09 07:33N 38°39' W 010°12'1615.7
2015-Jun-09 06:33N 38°55' W 010°13'1515.5
2015-Jun-09 05:33N 39°10' W 010°13'  

Dump ship's entire track history